Time;durP1;ratioP1;P1;durP2;ratioP2;P2;SDS_P1;SDS_P2;PMS_P1;PMS_P2;Temp;Humidity;BMP_temperature;BMP_pressure;BME280_temperature;BME280_humidity;BME280_pressure;Samples;Min_cycle;Max_cycle;Signal;HPM_P1;HPM_P2
2022/03/15 00:00:27;;;;;;;21.77;12.05;;;9.10;72.70;;;;;;5114957;28;20040;-63
2022/03/15 00:02:54;;;;;;;22.55;12.30;;;9.10;73.00;;;;;;5114912;28;20434;-63
2022/03/15 00:05:20;;;;;;;24.92;11.27;;;9.10;72.90;;;;;;5114770;28;20056;-63
2022/03/15 00:07:47;;;;;;;20.73;11.93;;;9.10;72.90;;;;;;5114864;28;20027;-64
2022/03/15 00:10:14;;;;;;;25.23;12.13;;;9.20;72.80;;;;;;5114759;28;20024;-65
2022/03/15 00:12:40;;;;;;;24.08;13.35;;;9.20;72.90;;;;;;5114655;28;20028;-65
2022/03/15 00:15:08;;;;;;;26.85;13.15;;;9.30;72.90;;;;;;5114684;28;20016;-65
2022/03/15 00:17:35;;;;;;;25.27;12.80;;;9.30;73.30;;;;;;5114633;28;20024;-63
2022/03/15 00:20:01;;;;;;;27.20;12.07;;;9.30;73.30;;;;;;5114560;28;20021;-63
2022/03/15 00:22:27;;;;;;;21.83;11.60;;;9.40;74.00;;;;;;5114219;28;20055;-63
2022/03/15 00:24:52;;;;;;;19.38;10.45;;;9.50;72.90;;;;;;5114013;28;20036;-63
2022/03/15 00:27:19;;;;;;;19.77;10.27;;;9.50;72.50;;;;;;5114444;28;20032;-63
2022/03/15 00:29:45;;;;;;;22.23;11.70;;;9.50;72.30;;;;;;5114517;28;20035;-65
2022/03/15 00:32:18;;;;;;;25.85;11.57;;;9.50;72.10;;;;;;5114254;28;20024;-65
2022/03/15 00:34:44;;;;;;;24.30;12.93;;;9.50;71.80;;;;;;5114367;28;20028;-65
2022/03/15 00:37:10;;;;;;;26.05;13.70;;;9.50;71.70;;;;;;5114280;28;20059;-63
2022/03/15 00:39:35;;;;;;;36.33;14.50;;;9.50;72.60;;;;;;5114162;28;20032;-63
2022/03/15 00:42:01;;;;;;;26.92;13.25;;;9.50;71.80;;;;;;5114175;28;20043;-63
2022/03/15 00:44:27;;;;;;;22.20;13.23;;;9.50;71.80;;;;;;5114112;28;20028;-63
2022/03/15 00:46:52;;;;;;;28.08;14.02;;;9.60;71.80;;;;;;5114079;28;20069;-63
2022/03/15 00:49:20;;;;;;;22.67;13.38;;;9.50;71.80;;;;;;5114155;28;20024;-63
2022/03/15 00:51:45;;;;;;;25.92;13.57;;;9.50;72.30;;;;;;5114009;28;20012;-63
2022/03/15 00:54:11;;;;;;;24.75;13.70;;;9.40;72.20;;;;;;5113871;28;20092;-63
2022/03/15 00:56:36;;;;;;;24.55;12.02;;;9.50;72.00;;;;;;5113946;28;20023;-63
2022/03/15 00:59:02;;;;;;;24.90;13.15;;;9.40;71.50;;;;;;5113900;28;20031;-63
2022/03/15 01:01:29;;;;;;;26.83;13.63;;;9.30;72.10;;;;;;5113865;28;20088;-63
2022/03/15 01:03:55;;;;;;;24.23;11.85;;;9.20;72.40;;;;;;5113791;28;20505;-63
2022/03/15 01:06:21;;;;;;;25.33;12.35;;;9.20;72.50;;;;;;5113599;28;20076;-63
2022/03/15 01:08:46;;;;;;;22.88;12.20;;;9.20;72.90;;;;;;5095883;28;20036;-63
2022/03/15 01:11:12;;;;;;;22.88;11.50;;;9.30;73.10;;;;;;5113695;28;20043;-63
2022/03/15 01:13:38;;;;;;;22.65;11.48;;;9.30;73.20;;;;;;5113609;28;20053;-63
2022/03/15 01:16:03;;;;;;;20.27;11.13;;;9.30;73.00;;;;;;5113632;28;20067;-63
2022/03/15 01:18:30;;;;;;;21.05;10.93;;;9.40;72.80;;;;;;5095603;28;20032;-64
2022/03/15 01:20:56;;;;;;;21.45;11.82;;;9.40;72.50;;;;;;5113594;28;20080;-63
2022/03/15 01:23:21;;;;;;;22.88;11.65;;;9.50;72.40;;;;;;5113666;28;20028;-63
2022/03/15 01:25:47;;;;;;;21.77;11.90;;;9.50;72.30;;;;;;5113411;28;20048;-63
2022/03/15 01:28:13;;;;;;;20.83;10.98;;;9.50;72.00;;;;;;5113448;28;20028;-63
2022/03/15 01:30:39;;;;;;;21.75;12.15;;;9.50;72.10;;;;;;5113443;28;20030;-63
2022/03/15 01:33:05;;;;;;;19.17;10.13;;;9.50;72.00;;;;;;5113326;28;20047;-64
2022/03/15 01:35:30;;;;;;;21.55;10.20;;;9.40;71.90;;;;;;5113288;28;20091;-65
2022/03/15 01:37:56;;;;;;;20.73;11.18;;;9.40;72.20;;;;;;5113341;28;20024;-63
2022/03/15 01:40:22;;;;;;;18.77;10.75;;;9.30;72.30;;;;;;5113328;28;20081;-62
2022/03/15 01:42:47;;;;;;;22.45;11.38;;;9.30;72.50;;;;;;5113317;28;20099;-63
2022/03/15 01:45:13;;;;;;;21.08;11.43;;;9.20;72.50;;;;;;5113330;28;20080;-63
2022/03/15 01:47:39;;;;;;;18.70;11.27;;;9.20;72.40;;;;;;5113260;28;20032;-63
2022/03/15 01:50:05;;;;;;;19.02;10.48;;;9.20;72.30;;;;;;5113381;28;20050;-63
2022/03/15 01:52:31;;;;;;;20.50;11.20;;;9.20;72.00;;;;;;5113154;28;20031;-63
2022/03/15 01:54:57;;;;;;;19.20;10.90;;;9.00;71.90;;;;;;5113214;28;20028;-63
2022/03/15 01:57:23;;;;;;;19.10;10.63;;;9.00;71.90;;;;;;5113144;28;20032;-63
2022/03/15 01:59:49;;;;;;;23.42;11.30;;;8.90;72.10;;;;;;5113179;28;20031;-63
2022/03/15 02:02:14;;;;;;;25.70;11.48;;;8.90;72.10;;;;;;5113264;28;20471;-63
2022/03/15 02:04:40;;;;;;;17.77;10.50;;;9.00;72.00;;;;;;5112938;28;20034;-64
2022/03/15 02:07:09;;;;;;;19.42;10.30;;;9.00;72.00;;;;;;5113118;28;20063;-63
2022/03/15 02:09:35;;;;;;;22.35;10.88;;;9.00;71.70;;;;;;5113086;28;20051;-63
2022/03/15 02:12:01;;;;;;;21.73;10.95;;;9.00;71.80;;;;;;5112979;28;20024;-63
2022/03/15 02:14:28;;;;;;;21.95;10.73;;;9.00;71.60;;;;;;5113004;28;20081;-64
2022/03/15 02:16:54;;;;;;;20.02;10.35;;;8.90;72.00;;;;;;5112995;28;20029;-65
2022/03/15 02:19:21;;;;;;;18.17;10.07;;;8.90;72.00;;;;;;5112972;28;20052;-65
2022/03/15 02:21:47;;;;;;;20.30;10.45;;;8.90;71.60;;;;;;5112958;28;20024;-65
2022/03/15 02:24:13;;;;;;;22.35;12.07;;;8.90;71.50;;;;;;5112849;28;20396;-65
2022/03/15 02:26:39;;;;;;;22.90;12.45;;;8.80;72.00;;;;;;5113061;28;20135;-65
2022/03/15 02:29:05;;;;;;;19.10;11.10;;;8.80;72.10;;;;;;5112897;28;20020;-65
2022/03/15 02:31:30;;;;;;;21.48;12.05;;;8.90;72.20;;;;;;5112852;28;20055;-65
2022/03/15 02:33:56;;;;;;;19.13;11.15;;;8.80;72.50;;;;;;5094936;28;20044;-65
2022/03/15 02:36:22;;;;;;;18.80;11.30;;;8.80;72.60;;;;;;5112830;28;20039;-65
2022/03/15 02:38:48;;;;;;;21.65;10.80;;;8.90;72.60;;;;;;5112809;28;20024;-63
2022/03/15 02:41:14;;;;;;;22.08;11.95;;;8.80;72.60;;;;;;5112764;28;20024;-64
2022/03/15 02:43:41;;;;;;;18.05;10.70;;;8.70;73.00;;;;;;5112717;28;20080;-65
2022/03/15 02:46:07;;;;;;;21.98;10.90;;;8.50;73.60;;;;;;5113177;28;20048;-65
2022/03/15 02:48:34;;;;;;;23.65;10.75;;;8.40;73.90;;;;;;5116388;28;20047;-63
2022/03/15 02:51:04;;;;;;;19.23;10.07;;;8.50;74.20;;;;;;5116339;28;20049;-62
2022/03/15 02:53:30;;;;;;;18.17;9.77;;;8.60;73.90;;;;;;5116271;28;20027;-64
2022/03/15 02:55:55;;;;;;;16.00;9.40;;;8.70;73.40;;;;;;5116240;28;20024;-65
2022/03/15 02:58:21;;;;;;;20.27;10.48;;;8.60;73.00;;;;;;5116158;28;20066;-63
2022/03/15 03:00:47;;;;;;;17.77;9.77;;;8.50;73.20;;;;;;5116141;28;20039;-64
2022/03/15 03:03:13;;;;;;;16.23;9.55;;;8.50;73.50;;;;;;5116104;28;20016;-65
2022/03/15 03:05:39;;;;;;;17.77;9.95;;;8.50;73.70;;;;;;5115880;28;20066;-65
2022/03/15 03:08:05;;;;;;;15.82;9.77;;;8.40;74.00;;;;;;5115995;28;20036;-65
2022/03/15 03:10:33;;;;;;;16.17;9.60;;;8.30;74.30;;;;;;5115962;28;20028;-65
2022/03/15 03:12:59;;;;;;;18.92;9.93;;;8.30;74.50;;;;;;5115821;28;20058;-65
2022/03/15 03:15:24;;;;;;;18.38;9.80;;;8.30;74.80;;;;;;5115986;28;20391;-65
2022/03/15 03:17:50;;;;;;;16.42;9.57;;;8.20;74.80;;;;;;5115833;28;20016;-65
2022/03/15 03:20:19;;;;;;;20.33;9.13;;;8.10;75.20;;;;;;5115910;28;20103;-65
2022/03/15 03:22:46;;;;;;;16.95;10.23;;;8.20;75.20;;;;;;5115855;28;20069;-63
2022/03/15 03:25:12;;;;;;;17.80;10.18;;;8.30;75.00;;;;;;5115614;28;20020;-63
2022/03/15 03:27:38;;;;;;;16.58;9.65;;;8.30;75.00;;;;;;5115736;28;20028;-63
2022/03/15 03:30:04;;;;;;;18.42;9.55;;;8.40;75.80;;;;;;5115569;28;20028;-63
2022/03/15 03:32:30;;;;;;;18.55;10.25;;;8.50;74.80;;;;;;5115461;28;20028;-62
2022/03/15 03:34:56;;;;;;;16.75;9.35;;;8.60;74.50;;;;;;5115478;28;20013;-64
2022/03/15 03:37:22;;;;;;;13.40;8.38;;;8.60;74.30;;;;;;5115475;28;20031;-65
2022/03/15 03:39:48;;;;;;;16.60;9.70;;;8.60;74.20;;;;;;5115358;28;20057;-65
2022/03/15 03:42:14;;;;;;;13.45;8.52;;;8.50;74.20;;;;;;5115351;28;20028;-63
2022/03/15 03:44:42;;;;;;;17.63;9.23;;;8.40;74.60;;;;;;5115298;28;20032;-63
2022/03/15 03:47:09;;;;;;;16.83;8.70;;;8.40;74.60;;;;;;5115255;28;20028;-63
2022/03/15 03:49:37;;;;;;;15.05;9.05;;;8.40;74.60;;;;;;5115210;28;20035;-64
2022/03/15 03:52:03;;;;;;;16.52;8.27;;;8.40;74.60;;;;;;5115097;28;20024;-63
2022/03/15 03:54:29;;;;;;;16.08;9.27;;;8.50;74.30;;;;;;5115128;28;20024;-63
2022/03/15 03:56:55;;;;;;;16.52;8.80;;;8.50;74.50;;;;;;5115150;28;20054;-65
2022/03/15 03:59:21;;;;;;;19.95;10.13;;;8.50;74.50;;;;;;5113905;28;20031;-65
2022/03/15 04:01:46;;;;;;;16.58;9.65;;;8.50;74.30;;;;;;5114956;28;20028;-65
2022/03/15 04:04:12;;;;;;;18.65;9.77;;;8.60;74.30;;;;;;5114912;28;20032;-65
2022/03/15 04:06:39;;;;;;;16.20;9.88;;;8.70;74.10;;;;;;5114663;28;20063;-65
2022/03/15 04:09:05;;;;;;;13.38;8.55;;;8.60;74.00;;;;;;5114814;28;20028;-65
2022/03/15 04:11:31;;;;;;;16.38;9.60;;;8.50;74.30;;;;;;5114645;28;20031;-65
2022/03/15 04:14:01;;;;;;;16.95;9.95;;;8.50;74.50;;;;;;5114668;28;20063;-64
2022/03/15 04:16:28;;;;;;;18.05;9.30;;;8.50;74.40;;;;;;5114886;28;20016;-65
2022/03/15 04:18:53;;;;;;;18.77;9.50;;;8.60;74.30;;;;;;5114622;28;20035;-63
2022/03/15 04:21:24;;;;;;;18.48;10.05;;;8.70;74.10;;;;;;5114644;28;20080;-63
2022/03/15 04:23:54;;;;;;;16.52;9.80;;;8.70;74.00;;;;;;5114587;28;20031;-64
2022/03/15 04:26:20;;;;;;;15.55;8.98;;;8.70;73.90;;;;;;5114482;28;20019;-65
2022/03/15 04:28:46;;;;;;;21.58;10.00;;;8.70;73.80;;;;;;5114451;28;20065;-65
2022/03/15 04:31:12;;;;;;;14.55;8.38;;;8.60;74.30;;;;;;5114435;28;20021;-65
2022/03/15 04:33:37;;;;;;;17.08;9.32;;;8.40;74.70;;;;;;5114251;28;20043;-63
2022/03/15 04:36:03;;;;;;;18.08;9.27;;;8.30;74.90;;;;;;5114294;28;20020;-63
2022/03/15 04:38:29;;;;;;;14.48;9.07;;;8.30;74.90;;;;;;5114256;28;20105;-65
2022/03/15 04:40:55;;;;;;;28.08;9.50;;;8.40;75.80;;;;;;5114205;28;20021;-65
2022/03/15 04:43:20;;;;;;;17.45;9.77;;;8.50;74.80;;;;;;5114215;28;20027;-65
2022/03/15 04:45:46;;;;;;;17.63;9.27;;;8.60;75.50;;;;;;5114125;28;20031;-64
2022/03/15 04:48:13;;;;;;;15.98;9.23;;;8.60;75.20;;;;;;5114071;28;20036;-65
2022/03/15 04:50:38;;;;;;;15.70;9.23;;;8.70;74.20;;;;;;5114053;28;20024;-65
2022/03/15 04:53:04;;;;;;;16.80;9.48;;;8.70;74.00;;;;;;5113943;28;20032;-63
2022/03/15 04:55:29;;;;;;;22.48;10.90;;;8.60;75.00;;;;;;5113939;28;20028;-63
2022/03/15 04:57:55;;;;;;;14.10;9.52;;;8.40;74.70;;;;;;5113935;28;20020;-63
2022/03/15 05:00:21;;;;;;;15.02;9.60;;;8.30;75.10;;;;;;5113996;28;20506;-64
2022/03/15 05:02:46;;;;;;;14.20;9.10;;;8.20;76.20;;;;;;5113847;28;20028;-65
2022/03/15 05:05:15;;;;;;;13.32;8.52;;;8.30;75.30;;;;;;5113609;28;20063;-65
2022/03/15 05:07:41;;;;;;;17.00;8.90;;;8.40;74.90;;;;;;5113802;28;20513;-64
2022/03/15 05:12:51;;;;;;;14.57;9.35;;;8.40;74.40;;;;;;5113737;28;20150;-65
2022/03/15 05:15:17;;;;;;;15.15;9.13;;;8.30;74.70;;;;;;5113698;28;20020;-65
2022/03/15 05:17:43;;;;;;;15.25;8.88;;;8.20;75.00;;;;;;5113618;28;20026;-65
2022/03/15 05:20:10;;;;;;;14.63;8.48;;;8.20;75.10;;;;;;5113583;28;20028;-65
2022/03/15 05:22:36;;;;;;;17.80;9.05;;;8.20;75.00;;;;;;5095838;28;20024;-65
2022/03/15 05:25:02;;;;;;;16.92;8.93;;;8.30;74.80;;;;;;5113423;28;20023;-65
2022/03/15 05:27:33;;;;;;;16.85;9.23;;;8.30;74.90;;;;;;5113516;28;20083;-65
2022/03/15 05:29:59;;;;;;;15.32;9.15;;;8.20;75.10;;;;;;5113653;28;20032;-63
2022/03/15 05:32:25;;;;;;;19.98;9.65;;;8.20;75.40;;;;;;5113273;28;20434;-62
2022/03/15 05:34:51;;;;;;;14.43;8.65;;;8.20;75.40;;;;;;5113370;28;20024;-63
2022/03/15 05:37:17;;;;;;;15.38;9.35;;;8.20;75.30;;;;;;5113352;28;20170;-63
2022/03/15 05:39:43;;;;;;;15.90;9.48;;;8.20;75.40;;;;;;5113323;28;20028;-63
2022/03/15 05:42:12;;;;;;;14.23;9.88;;;8.20;75.30;;;;;;5113313;28;20054;-63
2022/03/15 05:44:38;;;;;;;20.20;9.35;;;8.30;75.40;;;;;;5113281;28;20506;-63
2022/03/15 05:47:04;;;;;;;17.95;10.38;;;8.30;75.40;;;;;;5113275;28;20017;-63
2022/03/15 05:49:30;;;;;;;16.63;10.00;;;8.40;75.30;;;;;;5113281;28;20022;-63
2022/03/15 05:51:55;;;;;;;18.13;9.57;;;8.50;76.00;;;;;;5113187;28;20020;-63
2022/03/15 05:54:21;;;;;;;17.15;9.95;;;8.50;75.10;;;;;;5113150;28;20028;-63
2022/03/15 05:56:46;;;;;;;20.52;10.18;;;8.50;75.00;;;;;;5113266;28;20024;-63
2022/03/15 05:59:13;;;;;;;17.73;9.32;;;8.50;74.90;;;;;;5113188;28;20056;-63
2022/03/15 06:01:39;;;;;;;18.40;9.68;;;8.60;74.90;;;;;;5113149;28;20024;-63
2022/03/15 06:04:05;;;;;;;14.68;9.13;;;8.50;74.90;;;;;;5113144;28;20031;-63
2022/03/15 06:06:31;;;;;;;17.38;9.48;;;8.40;75.00;;;;;;5112813;28;20062;-63
2022/03/15 06:08:56;;;;;;;17.70;9.52;;;8.40;75.10;;;;;;5112882;28;20024;-63
2022/03/15 06:11:22;;;;;;;15.40;8.55;;;8.40;75.30;;;;;;5113031;28;20028;-63
2022/03/15 06:13:48;;;;;;;15.35;9.02;;;8.40;75.30;;;;;;5113073;28;20043;-63
2022/03/15 06:16:13;;;;;;;13.88;9.43;;;8.30;75.30;;;;;;5112998;28;20031;-63
2022/03/15 06:18:39;;;;;;;14.00;9.35;;;8.40;75.40;;;;;;5112989;28;20032;-63
2022/03/15 06:21:05;;;;;;;19.45;9.20;;;8.40;75.40;;;;;;5113404;28;20024;-63
2022/03/15 06:23:31;;;;;;;15.32;9.32;;;8.40;75.50;;;;;;5116941;28;20024;-65
2022/03/15 06:25:56;;;;;;;14.13;9.02;;;8.30;75.60;;;;;;5116737;28;20032;-65
2022/03/15 06:28:22;;;;;;;15.90;9.32;;;8.30;75.90;;;;;;5116771;28;20106;-65
2022/03/15 06:30:48;;;;;;;17.08;8.90;;;8.30;75.80;;;;;;5116755;28;20089;-65
2022/03/15 06:33:14;;;;;;;18.85;9.18;;;8.40;76.00;;;;;;5116610;28;20028;-65
2022/03/15 06:35:42;;;;;;;20.30;9.63;;;8.40;76.00;;;;;;5116665;28;20040;-65
2022/03/15 06:38:09;;;;;;;16.80;8.75;;;8.40;75.90;;;;;;5116569;28;20035;-65
2022/03/15 06:40:36;;;;;;;15.40;9.20;;;8.40;75.90;;;;;;5116496;28;20024;-65
2022/03/15 06:43:02;;;;;;;15.80;9.15;;;8.40;75.80;;;;;;5116503;28;20024;-65
2022/03/15 06:45:28;;;;;;;17.25;10.10;;;8.40;76.10;;;;;;5116490;28;20048;-63
2022/03/15 06:47:54;;;;;;;16.98;10.07;;;8.30;76.60;;;;;;5116338;28;20065;-65
2022/03/15 06:50:19;;;;;;;19.30;10.05;;;8.30;76.80;;;;;;5116357;28;20044;-65
2022/03/15 06:52:47;;;;;;;18.50;9.27;;;8.20;76.80;;;;;;5116201;28;20039;-65
2022/03/15 06:55:13;;;;;;;17.75;9.80;;;8.30;76.80;;;;;;5116290;28;20372;-66
2022/03/15 06:57:40;;;;;;;18.35;10.02;;;8.30;76.80;;;;;;5116248;28;20045;-65
2022/03/15 07:00:09;;;;;;;19.95;10.35;;;8.30;76.90;;;;;;5116160;28;20506;-67
2022/03/15 07:02:35;;;;;;;16.15;9.98;;;8.30;77.30;;;;;;5116172;28;20055;-65
2022/03/15 07:05:01;;;;;;;19.40;10.05;;;8.20;77.50;;;;;;5115891;28;20035;-66
2022/03/15 07:07:28;;;;;;;20.70;9.60;;;8.30;77.40;;;;;;5098391;28;20048;-65
2022/03/15 07:09:54;;;;;;;20.83;10.70;;;8.30;77.60;;;;;;5115980;28;20035;-65
2022/03/15 07:12:21;;;;;;;19.88;10.55;;;8.30;77.60;;;;;;5115823;28;20031;-65
2022/03/15 07:14:47;;;;;;;18.13;9.27;;;8.20;77.40;;;;;;5115906;28;20028;-65
2022/03/15 07:17:13;;;;;;;21.98;10.00;;;8.20;77.80;;;;;;5115826;28;20142;-65
2022/03/15 07:19:38;;;;;;;27.67;10.77;;;8.20;78.00;;;;;;5115808;28;20031;-65
2022/03/15 07:22:07;;;;;;;21.20;10.13;;;8.10;78.70;;;;;;5115707;28;20028;-65
2022/03/15 07:24:34;;;;;;;19.92;9.85;;;8.00;79.70;;;;;;5115625;28;20043;-65
2022/03/15 07:27:00;;;;;;;22.02;11.05;;;8.00;80.00;;;;;;5115643;28;20069;-65
2022/03/15 07:29:25;;;;;;;21.58;10.43;;;8.00;80.20;;;;;;5115602;28;20029;-65
2022/03/15 07:31:51;;;;;;;17.88;10.40;;;7.90;80.60;;;;;;5115357;28;20032;-65
2022/03/15 07:34:17;;;;;;;20.10;10.05;;;7.90;80.50;;;;;;5115455;28;20055;-65
2022/03/15 07:36:42;;;;;;;20.15;10.23;;;7.90;80.40;;;;;;5115587;28;20027;-65
2022/03/15 07:39:08;;;;;;;21.35;9.45;;;8.00;80.10;;;;;;5115576;28;20035;-65
2022/03/15 07:41:39;;;;;;;15.70;9.70;;;8.00;80.00;;;;;;5115527;28;20050;-65
2022/03/15 07:44:06;;;;;;;21.27;10.18;;;8.10;79.70;;;;;;5115363;28;20020;-65
2022/03/15 07:46:31;;;;;;;16.35;10.23;;;8.20;79.40;;;;;;5115301;28;20028;-65
2022/03/15 07:48:57;;;;;;;20.33;9.95;;;8.20;79.60;;;;;;5115270;28;20518;-65
2022/03/15 07:51:23;;;;;;;33.67;10.65;;;8.20;79.60;;;;;;5115204;28;20028;-65
2022/03/15 07:53:48;;;;;;;18.17;9.65;;;8.20;79.60;;;;;;5115095;28;20032;-65
2022/03/15 07:56:14;;;;;;;17.27;10.48;;;8.20;80.10;;;;;;5115119;28;20028;-65
2022/03/15 07:58:39;;;;;;;18.40;9.98;;;8.30;79.90;;;;;;5115035;28;20100;-65
2022/03/15 08:01:05;;;;;;;19.15;9.82;;;8.20;79.80;;;;;;5114972;28;20032;-65
2022/03/15 08:03:31;;;;;;;16.48;9.73;;;8.20;79.90;;;;;;5114937;28;20032;-65
2022/03/15 08:05:57;;;;;;;18.02;9.30;;;8.20;80.00;;;;;;5114585;28;20060;-65
2022/03/15 08:08:22;;;;;;;19.35;9.57;;;8.20;79.80;;;;;;5114858;28;20028;-65
2022/03/15 08:10:48;;;;;;;19.55;9.80;;;8.30;80.10;;;;;;5114810;28;20046;-65
2022/03/15 08:13:14;;;;;;;16.85;8.95;;;8.30;79.80;;;;;;5114635;28;20447;-65
2022/03/15 08:15:40;;;;;;;20.10;8.85;;;8.40;79.60;;;;;;5114711;28;20099;-65
2022/03/15 08:18:06;;;;;;;27.80;10.82;;;8.40;79.50;;;;;;5114767;28;20021;-65
2022/03/15 08:20:33;;;;;;;26.08;10.43;;;8.50;79.40;;;;;;5114622;28;20020;-65
2022/03/15 08:22:59;;;;;;;46.50;10.98;;;8.60;79.60;;;;;;5114492;28;20027;-65
2022/03/15 08:25:25;;;;;;;25.13;9.80;;;8.60;79.50;;;;;;5114474;28;20024;-65
2022/03/15 08:27:52;;;;;;;23.38;10.05;;;8.70;79.60;;;;;;5114402;28;20031;-63
2022/03/15 08:30:18;;;;;;;15.02;8.55;;;8.70;79.10;;;;;;5114449;28;20028;-64
2022/03/15 08:32:43;;;;;;;17.55;8.80;;;8.70;78.90;;;;;;5114342;28;20024;-65
2022/03/15 08:35:09;;;;;;;16.95;9.05;;;8.80;79.20;;;;;;5114356;28;20092;-65
2022/03/15 08:37:36;;;;;;;15.70;9.00;;;8.80;78.90;;;;;;5114273;28;20024;-65
2022/03/15 08:40:03;;;;;;;13.82;8.63;;;8.80;79.20;;;;;;5114256;28;20073;-65
2022/03/15 08:42:28;;;;;;;14.48;8.40;;;8.80;79.10;;;;;;5114248;28;20024;-65
2022/03/15 08:44:54;;;;;;;17.83;9.02;;;8.90;79.00;;;;;;5113510;28;20036;-65
2022/03/15 08:47:20;;;;;;;13.98;8.30;;;8.90;79.30;;;;;;5114130;28;20024;-65
2022/03/15 08:49:45;;;;;;;14.20;8.65;;;8.90;79.10;;;;;;5114094;28;20043;-63
2022/03/15 08:52:11;;;;;;;14.77;8.68;;;9.00;79.00;;;;;;5113935;28;20036;-63
2022/03/15 08:54:37;;;;;;;17.25;8.68;;;9.00;79.20;;;;;;5113977;28;20044;-62
2022/03/15 08:57:03;;;;;;;17.15;8.73;;;9.10;79.20;;;;;;5096096;28;20024;-65
2022/03/15 08:59:29;;;;;;;16.58;9.00;;;9.10;78.90;;;;;;5113900;28;20024;-65
2022/03/15 09:01:55;;;;;;;14.32;7.80;;;9.20;78.60;;;;;;5113813;28;20091;-62
2022/03/15 09:04:20;;;;;;;14.77;8.25;;;9.20;78.30;;;;;;5113833;28;20047;-62
2022/03/15 09:06:47;;;;;;;15.93;8.68;;;9.20;78.70;;;;;;5095570;28;20060;-64
2022/03/15 09:09:18;;;;;;;20.55;8.52;;;9.20;78.70;;;;;;5113739;28;20031;-64
2022/03/15 09:11:44;;;;;;;19.52;8.98;;;9.30;78.70;;;;;;5113687;28;20046;-65
2022/03/15 09:14:10;;;;;;;17.10;9.70;;;9.30;78.80;;;;;;5113610;28;20032;-65
2022/03/15 09:16:36;;;;;;;16.38;8.98;;;9.30;78.80;;;;;;5113709;28;20020;-62
2022/03/15 09:19:01;;;;;;;16.30;8.80;;;9.40;78.90;;;;;;5113598;28;20088;-62
2022/03/15 09:21:27;;;;;;;15.02;8.30;;;9.40;78.50;;;;;;5113573;28;20024;-62
2022/03/15 09:23:55;;;;;;;15.52;8.88;;;9.40;78.30;;;;;;5113445;28;20123;-64
2022/03/15 09:26:21;;;;;;;15.57;8.60;;;9.40;78.40;;;;;;5113488;28;20020;-62
2022/03/15 09:28:47;;;;;;;16.67;7.75;;;9.40;78.20;;;;;;5113506;28;20031;-62
2022/03/15 09:31:13;;;;;;;12.57;7.68;;;9.30;78.30;;;;;;5113450;28;20020;-62
2022/03/15 09:33:38;;;;;;;14.23;7.90;;;9.40;78.30;;;;;;5113315;28;20043;-62
2022/03/15 09:36:05;;;;;;;11.70;7.20;;;9.40;78.60;;;;;;5113384;28;20013;-64
2022/03/15 09:38:31;;;;;;;15.25;8.23;;;9.40;78.00;;;;;;5113480;28;20042;-62
2022/03/15 09:41:03;;;;;;;14.32;7.95;;;9.40;78.10;;;;;;5113350;28;20024;-62
2022/03/15 09:43:40;;;;;;;12.18;7.50;;;9.40;78.10;;;;;;5113496;28;20024;-62
2022/03/15 09:46:08;;;;;;;64.38;13.32;;;9.40;78.20;;;;;;5113282;28;20043;-62
2022/03/15 09:48:34;;;;;;;51.67;13.25;;;9.40;78.20;;;;;;5113213;28;20099;-62
2022/03/15 09:51:04;;;;;;;14.52;8.02;;;9.50;78.70;;;;;;5113205;28;20048;-62
2022/03/15 09:53:34;;;;;;;16.65;8.05;;;9.50;78.10;;;;;;5113153;28;20049;-65
2022/03/15 09:56:00;;;;;;;12.50;8.18;;;9.60;78.20;;;;;;5115173;28;20016;-65
2022/03/15 09:58:26;;;;;;;16.83;7.88;;;9.60;77.70;;;;;;5117392;28;20431;-64
2022/03/15 10:00:54;;;;;;;12.95;7.32;;;9.70;77.70;;;;;;5117255;28;20029;-63
2022/03/15 10:03:21;;;;;;;17.15;7.50;;;9.80;77.30;;;;;;5117276;28;20088;-65
2022/03/15 10:05:47;;;;;;;13.13;7.43;;;9.80;77.00;;;;;;5116985;28;20036;-65
2022/03/15 10:08:13;;;;;;;13.88;7.35;;;9.80;76.50;;;;;;5117102;28;20051;-65
2022/03/15 10:10:39;;;;;;;12.85;7.05;;;9.80;75.70;;;;;;5117119;28;20087;-62
2022/03/15 10:13:05;;;;;;;15.50;7.60;;;9.80;75.30;;;;;;5117035;28;20024;-62
2022/03/15 10:15:30;;;;;;;15.18;8.18;;;9.80;76.00;;;;;;5117030;28;20035;-62
2022/03/15 10:18:04;;;;;;;11.57;7.05;;;9.90;76.30;;;;;;5117031;28;20024;-65
2022/03/15 10:20:37;;;;;;;14.45;7.88;;;9.90;75.90;;;;;;5117033;28;20028;-65
2022/03/15 10:23:03;;;;;;;12.77;7.60;;;9.90;76.80;;;;;;5116944;28;20024;-62
2022/03/15 10:25:31;;;;;;;15.15;7.45;;;9.90;75.40;;;;;;5116792;28;20039;-62
2022/03/15 10:27:59;;;;;;;11.63;7.40;;;9.90;75.20;;;;;;5116788;28;20035;-62
2022/03/15 10:30:26;;;;;;;14.32;7.47;;;10.00;75.50;;;;;;5116738;28;20028;-62
2022/03/15 10:32:53;;;;;;;17.48;7.75;;;10.00;75.40;;;;;;5116638;28;20020;-62
2022/03/15 10:35:24;;;;;;;13.60;7.20;;;10.10;76.00;;;;;;5116806;28;20025;-62
2022/03/15 10:37:51;;;;;;;14.60;7.05;;;10.10;75.20;;;;;;5116659;28;20024;-62
2022/03/15 10:40:17;;;;;;;14.50;7.15;;;10.20;75.30;;;;;;5116578;28;20130;-64
2022/03/15 10:42:46;;;;;;;13.27;7.82;;;10.30;75.20;;;;;;5116607;28;20028;-65
2022/03/15 10:45:21;;;;;;;16.98;7.20;;;10.30;74.80;;;;;;5116480;28;20054;-62
2022/03/15 10:47:52;;;;;;;12.55;7.55;;;10.40;74.80;;;;;;5098511;28;20028;-62
2022/03/15 10:50:18;;;;;;;17.70;7.97;;;10.40;74.90;;;;;;5116406;28;20031;-64
2022/03/15 10:52:46;;;;;;;17.98;7.63;;;10.40;74.70;;;;;;5116285;28;20056;-65
2022/03/15 10:55:17;;;;;;;16.23;7.05;;;10.40;74.70;;;;;;5116337;28;20043;-64
2022/03/15 10:57:53;;;;;;;12.70;7.53;;;10.40;74.00;;;;;;5116245;28;20024;-62
2022/03/15 11:00:31;;;;;;;13.20;7.13;;;10.40;73.50;;;;;;5116312;28;20020;-62
2022/03/15 11:02:59;;;;;;;14.52;7.15;;;10.40;73.90;;;;;;5116223;28;20052;-63
2022/03/15 11:05:27;;;;;;;14.35;7.70;;;10.50;74.00;;;;;;5115987;28;20024;-62
2022/03/15 11:07:53;;;;;;;14.18;7.20;;;10.60;74.00;;;;;;5115476;28;20028;-65
2022/03/15 11:10:19;;;;;;;13.35;7.78;;;10.60;73.20;;;;;;5098068;28;20031;-64
2022/03/15 11:13:02;;;;;;;13.45;7.82;;;10.60;73.50;;;;;;5115858;28;20035;-64
2022/03/15 11:15:29;;;;;;;;;;;10.70;73.60;;;;;;5116392;28;20026;-62
2022/03/15 11:17:58;;;;;;;13.88;6.85;;;10.70;73.50;;;;;;5115898;28;19904;-62
2022/03/15 11:20:25;;;;;;;13.65;7.30;;;10.80;73.60;;;;;;5115823;28;20020;-65
2022/03/15 11:22:52;;;;;;;13.05;7.55;;;10.80;73.40;;;;;;5115746;28;20036;-62
2022/03/15 11:25:21;;;;;;;15.55;7.75;;;10.80;73.50;;;;;;5115551;28;20032;-63
2022/03/15 11:27:51;;;;;;;14.65;7.93;;;10.80;73.50;;;;;;5115779;28;20024;-65
2022/03/15 11:30:19;;;;;;;12.13;6.95;;;10.90;73.30;;;;;;5115699;28;20035;-62
2022/03/15 11:32:46;;;;;;;11.60;7.45;;;10.90;73.10;;;;;;5115481;28;20071;-62
2022/03/15 11:35:13;;;;;;;10.50;6.97;;;10.90;73.10;;;;;;5115615;28;20032;-62
2022/03/15 11:37:40;;;;;;;15.05;7.53;;;11.00;73.10;;;;;;5115435;28;20031;-62
2022/03/15 11:40:09;;;;;;;13.85;6.93;;;11.00;73.10;;;;;;5115424;28;20025;-62
2022/03/15 11:42:40;;;;;;;11.25;6.90;;;11.00;72.20;;;;;;5115348;28;20024;-65
2022/03/15 11:45:16;;;;;;;11.45;6.97;;;10.90;72.20;;;;;;5115470;28;20031;-62
2022/03/15 11:48:15;;;;;;;11.38;6.68;;;10.90;72.70;;;;;;5115231;28;20028;-62
2022/03/15 11:51:01;;;;;;;15.15;6.97;;;11.00;72.30;;;;;;5115337;28;20024;-62
2022/03/15 11:53:46;;;;;;;11.82;7.07;;;11.00;72.40;;;;;;5115191;28;20031;-62
2022/03/15 11:56:18;;;;;;;12.77;7.10;;;11.00;72.50;;;;;;5115140;28;20080;-64
2022/03/15 11:58:54;;;;;;;13.80;7.57;;;11.00;72.50;;;;;;5115246;28;20419;-62
2022/03/15 12:01:22;;;;;;;13.48;7.35;;;11.00;72.30;;;;;;5115039;28;20020;-62
2022/03/15 12:03:52;;;;;;;12.88;7.40;;;11.10;72.60;;;;;;5114973;28;20028;-62
2022/03/15 12:06:30;;;;;;;9.82;7.05;;;11.10;73.40;;;;;;5114749;28;20056;-62
2022/03/15 12:08:59;;;;;;;13.82;7.90;;;11.10;71.90;;;;;;5114864;28;20019;-62
2022/03/15 12:11:30;;;;;;;13.20;7.13;;;11.20;71.80;;;;;;5114810;28;20030;-62
2022/03/15 12:14:11;;;;;;;13.93;7.47;;;11.20;71.60;;;;;;5114836;28;20016;-62
2022/03/15 12:16:42;;;;;;;12.88;7.30;;;11.20;71.50;;;;;;5114726;28;20024;-62
2022/03/15 12:19:52;;;;;;;11.88;6.78;;;11.20;71.20;;;;;;5113696;28;20027;-62
2022/03/15 12:22:00;;;;;;;14.10;8.32;;;11.30;71.50;;;;;;5106195;28;20036;-62
2022/03/15 12:24:36;;;;;;;12.52;6.90;;;11.30;71.20;;;;;;5114515;28;20020;-62
2022/03/15 12:27:07;;;;;;;12.07;7.40;;;11.40;70.30;;;;;;5114523;28;20111;-62
2022/03/15 12:29:33;;;;;;;10.85;6.70;;;11.30;70.20;;;;;;5114558;28;20048;-62
2022/03/15 12:32:13;;;;;;;12.43;6.70;;;11.30;70.40;;;;;;5114453;28;20051;-62
2022/03/15 12:34:44;;;;;;;11.13;6.35;;;11.40;69.70;;;;;;5096390;28;20077;-62
2022/03/15 12:37:10;;;;;;;11.70;6.90;;;11.30;69.50;;;;;;5114283;28;20020;-63
2022/03/15 12:39:36;;;;;;;14.02;6.93;;;11.30;69.40;;;;;;5114295;28;20020;-63
2022/03/15 12:42:14;;;;;;;15.35;7.00;;;11.30;69.50;;;;;;5114200;28;20070;-62
2022/03/15 12:44:44;;;;;;;15.35;6.82;;;11.40;69.60;;;;;;5114265;28;20024;-62